sensor_id;sensor_type;location;lat;lon;timestamp;temperature;humidity
4433;DHT22;2229;48.708;9.706;2022-08-27T00:02:10;20.00;99.90
4433;DHT22;2229;48.708;9.706;2022-08-27T00:04:38;19.90;99.90
4433;DHT22;2229;48.708;9.706;2022-08-27T00:07:06;19.90;99.90
4433;DHT22;2229;48.708;9.706;2022-08-27T00:09:34;19.90;99.90
4433;DHT22;2229;48.708;9.706;2022-08-27T00:12:02;19.90;99.90
4433;DHT22;2229;48.708;9.706;2022-08-27T00:14:31;19.90;99.90
4433;DHT22;2229;48.708;9.706;2022-08-27T00:16:59;19.90;99.90
4433;DHT22;2229;48.708;9.706;2022-08-27T00:19:26;19.90;99.90
4433;DHT22;2229;48.708;9.706;2022-08-27T00:21:53;19.90;99.90
4433;DHT22;2229;48.708;9.706;2022-08-27T00:24:21;19.90;99.90
4433;DHT22;2229;48.708;9.706;2022-08-27T00:26:52;19.90;99.90
4433;DHT22;2229;48.708;9.706;2022-08-27T00:29:19;19.90;99.90
4433;DHT22;2229;48.708;9.706;2022-08-27T00:31:51;19.90;99.90
4433;DHT22;2229;48.708;9.706;2022-08-27T00:34:19;19.90;99.90
4433;DHT22;2229;48.708;9.706;2022-08-27T00:36:47;19.90;99.90
4433;DHT22;2229;48.708;9.706;2022-08-27T00:39:14;19.90;99.90
4433;DHT22;2229;48.708;9.706;2022-08-27T00:41:42;19.90;99.90
4433;DHT22;2229;48.708;9.706;2022-08-27T00:44:09;19.90;99.90
4433;DHT22;2229;48.708;9.706;2022-08-27T00:46:41;19.90;99.90
4433;DHT22;2229;48.708;9.706;2022-08-27T00:49:13;19.80;99.90
4433;DHT22;2229;48.708;9.706;2022-08-27T00:51:45;19.80;99.90
4433;DHT22;2229;48.708;9.706;2022-08-27T00:54:17;19.80;99.90
4433;DHT22;2229;48.708;9.706;2022-08-27T00:56:45;19.80;99.90
4433;DHT22;2229;48.708;9.706;2022-08-27T00:59:14;19.80;99.90
4433;DHT22;2229;48.708;9.706;2022-08-27T01:01:43;19.80;99.90
4433;DHT22;2229;48.708;9.706;2022-08-27T01:04:26;19.80;99.90
4433;DHT22;2229;48.708;9.706;2022-08-27T01:06:53;19.80;99.90
4433;DHT22;2229;48.708;9.706;2022-08-27T01:09:21;19.80;99.90
4433;DHT22;2229;48.708;9.706;2022-08-27T01:11:49;19.80;99.90
4433;DHT22;2229;48.708;9.706;2022-08-27T01:14:17;19.80;99.90
4433;DHT22;2229;48.708;9.706;2022-08-27T01:16:48;19.80;99.90
4433;DHT22;2229;48.708;9.706;2022-08-27T01:19:21;19.90;99.90
4433;DHT22;2229;48.708;9.706;2022-08-27T01:21:58;19.90;99.90
4433;DHT22;2229;48.708;9.706;2022-08-27T01:24:36;19.90;99.90
4433;DHT22;2229;48.708;9.706;2022-08-27T01:27:07;19.90;99.90
4433;DHT22;2229;48.708;9.706;2022-08-27T01:29:36;19.90;99.90
4433;DHT22;2229;48.708;9.706;2022-08-27T01:32:08;19.90;99.90
4433;DHT22;2229;48.708;9.706;2022-08-27T01:34:35;19.90;99.90
4433;DHT22;2229;48.708;9.706;2022-08-27T01:37:03;19.90;99.90
4433;DHT22;2229;48.708;9.706;2022-08-27T01:39:33;19.90;99.90
4433;DHT22;2229;48.708;9.706;2022-08-27T01:42:03;19.90;99.90
4433;DHT22;2229;48.708;9.706;2022-08-27T01:44:45;19.90;99.90
4433;DHT22;2229;48.708;9.706;2022-08-27T01:47:13;19.80;99.90
4433;DHT22;2229;48.708;9.706;2022-08-27T01:49:40;19.80;99.90
4433;DHT22;2229;48.708;9.706;2022-08-27T01:52:10;19.90;99.90
4433;DHT22;2229;48.708;9.706;2022-08-27T01:54:39;19.80;99.90
4433;DHT22;2229;48.708;9.706;2022-08-27T01:57:06;19.80;99.90
4433;DHT22;2229;48.708;9.706;2022-08-27T01:59:34;19.80;99.90
4433;DHT22;2229;48.708;9.706;2022-08-27T02:02:02;19.80;99.90
4433;DHT22;2229;48.708;9.706;2022-08-27T02:04:31;19.80;99.90
4433;DHT22;2229;48.708;9.706;2022-08-27T02:06:59;19.80;99.90
4433;DHT22;2229;48.708;9.706;2022-08-27T02:09:26;19.80;99.90
4433;DHT22;2229;48.708;9.706;2022-08-27T02:11:55;19.80;99.90
4433;DHT22;2229;48.708;9.706;2022-08-27T02:14:22;19.80;99.90
4433;DHT22;2229;48.708;9.706;2022-08-27T02:16:51;19.80;99.90
4433;DHT22;2229;48.708;9.706;2022-08-27T02:19:19;19.80;99.90
4433;DHT22;2229;48.708;9.706;2022-08-27T02:21:46;19.80;99.90
4433;DHT22;2229;48.708;9.706;2022-08-27T02:24:14;19.80;99.90
4433;DHT22;2229;48.708;9.706;2022-08-27T02:26:41;19.80;99.90
4433;DHT22;2229;48.708;9.706;2022-08-27T02:29:09;19.80;99.90
4433;DHT22;2229;48.708;9.706;2022-08-27T02:31:37;19.80;99.90
4433;DHT22;2229;48.708;9.706;2022-08-27T02:34:07;19.80;99.90
4433;DHT22;2229;48.708;9.706;2022-08-27T02:36:35;19.80;99.90
4433;DHT22;2229;48.708;9.706;2022-08-27T02:39:06;19.80;99.90
4433;DHT22;2229;48.708;9.706;2022-08-27T02:41:33;19.80;99.90
4433;DHT22;2229;48.708;9.706;2022-08-27T02:44:01;19.80;99.90
4433;DHT22;2229;48.708;9.706;2022-08-27T02:46:29;19.80;99.90
4433;DHT22;2229;48.708;9.706;2022-08-27T02:48:57;19.80;99.90
4433;DHT22;2229;48.708;9.706;2022-08-27T02:51:24;19.80;99.90
4433;DHT22;2229;48.708;9.706;2022-08-27T02:53:51;19.80;99.90
4433;DHT22;2229;48.708;9.706;2022-08-27T02:56:19;19.80;99.90
4433;DHT22;2229;48.708;9.706;2022-08-27T02:58:49;19.80;99.90
4433;DHT22;2229;48.708;9.706;2022-08-27T03:01:16;19.80;99.90
4433;DHT22;2229;48.708;9.706;2022-08-27T03:03:46;19.80;99.90
4433;DHT22;2229;48.708;9.706;2022-08-27T03:06:13;19.80;99.90
4433;DHT22;2229;48.708;9.706;2022-08-27T03:08:40;19.80;99.90
4433;DHT22;2229;48.708;9.706;2022-08-27T03:11:07;19.70;99.90
4433;DHT22;2229;48.708;9.706;2022-08-27T03:13:35;19.70;99.90
4433;DHT22;2229;48.708;9.706;2022-08-27T03:16:06;19.70;99.90
4433;DHT22;2229;48.708;9.706;2022-08-27T03:18:37;19.70;99.90
4433;DHT22;2229;48.708;9.706;2022-08-27T03:21:04;19.70;99.90
4433;DHT22;2229;48.708;9.706;2022-08-27T03:23:33;19.70;99.90
4433;DHT22;2229;48.708;9.706;2022-08-27T03:26:09;19.70;99.90
4433;DHT22;2229;48.708;9.706;2022-08-27T03:28:37;19.60;99.90
4433;DHT22;2229;48.708;9.706;2022-08-27T03:31:06;19.60;99.90
4433;DHT22;2229;48.708;9.706;2022-08-27T03:33:36;19.60;99.90
4433;DHT22;2229;48.708;9.706;2022-08-27T03:36:06;19.60;99.90
4433;DHT22;2229;48.708;9.706;2022-08-27T03:38:33;19.60;99.90
4433;DHT22;2229;48.708;9.706;2022-08-27T03:41:01;19.60;99.90
4433;DHT22;2229;48.708;9.706;2022-08-27T03:43:29;19.60;99.90
4433;DHT22;2229;48.708;9.706;2022-08-27T03:45:56;19.70;99.90
4433;DHT22;2229;48.708;9.706;2022-08-27T03:48:23;19.70;99.90
4433;DHT22;2229;48.708;9.706;2022-08-27T03:50:51;19.60;99.90
4433;DHT22;2229;48.708;9.706;2022-08-27T03:53:19;19.70;99.90
4433;DHT22;2229;48.708;9.706;2022-08-27T03:55:47;19.60;99.90
4433;DHT22;2229;48.708;9.706;2022-08-27T03:58:15;19.70;99.90
4433;DHT22;2229;48.708;9.706;2022-08-27T04:00:42;19.70;99.90
4433;DHT22;2229;48.708;9.706;2022-08-27T04:03:11;19.70;99.90
4433;DHT22;2229;48.708;9.706;2022-08-27T04:05:39;19.70;99.90
4433;DHT22;2229;48.708;9.706;2022-08-27T04:08:09;19.70;99.90
4433;DHT22;2229;48.708;9.706;2022-08-27T04:10:41;20.00;99.90
4433;DHT22;2229;48.708;9.706;2022-08-27T04:13:08;19.70;99.90
4433;DHT22;2229;48.708;9.706;2022-08-27T04:15:35;19.70;99.90
4433;DHT22;2229;48.708;9.706;2022-08-27T04:18:03;19.70;99.90
4433;DHT22;2229;48.708;9.706;2022-08-27T04:20:30;19.80;99.90
4433;DHT22;2229;48.708;9.706;2022-08-27T04:22:57;19.80;99.90
4433;DHT22;2229;48.708;9.706;2022-08-27T04:25:25;19.80;99.90
4433;DHT22;2229;48.708;9.706;2022-08-27T04:27:53;19.90;99.90
4433;DHT22;2229;48.708;9.706;2022-08-27T04:30:21;19.80;99.90
4433;DHT22;2229;48.708;9.706;2022-08-27T04:32:48;19.80;99.90
4433;DHT22;2229;48.708;9.706;2022-08-27T04:35:15;19.80;99.90
4433;DHT22;2229;48.708;9.706;2022-08-27T04:37:43;19.90;99.90
4433;DHT22;2229;48.708;9.706;2022-08-27T04:40:12;19.80;99.90
4433;DHT22;2229;48.708;9.706;2022-08-27T04:42:39;19.90;99.90
4433;DHT22;2229;48.708;9.706;2022-08-27T04:45:09;19.80;99.90
4433;DHT22;2229;48.708;9.706;2022-08-27T04:47:36;19.80;99.90
4433;DHT22;2229;48.708;9.706;2022-08-27T04:50:04;19.90;99.90
4433;DHT22;2229;48.708;9.706;2022-08-27T04:52:32;19.90;99.90
4433;DHT22;2229;48.708;9.706;2022-08-27T04:54:59;19.90;99.90
4433;DHT22;2229;48.708;9.706;2022-08-27T04:57:27;19.90;99.90
4433;DHT22;2229;48.708;9.706;2022-08-27T04:59:55;19.90;99.90
4433;DHT22;2229;48.708;9.706;2022-08-27T05:02:24;19.90;99.90
4433;DHT22;2229;48.708;9.706;2022-08-27T05:04:51;19.90;99.90
4433;DHT22;2229;48.708;9.706;2022-08-27T05:07:18;20.00;99.90
4433;DHT22;2229;48.708;9.706;2022-08-27T05:09:45;19.90;99.90
4433;DHT22;2229;48.708;9.706;2022-08-27T05:12:12;20.00;99.90
4433;DHT22;2229;48.708;9.706;2022-08-27T05:14:40;20.00;99.90
4433;DHT22;2229;48.708;9.706;2022-08-27T05:17:07;20.00;99.90
4433;DHT22;2229;48.708;9.706;2022-08-27T05:19:35;20.00;99.90
4433;DHT22;2229;48.708;9.706;2022-08-27T05:22:06;20.00;99.90
4433;DHT22;2229;48.708;9.706;2022-08-27T05:24:52;20.00;99.90
4433;DHT22;2229;48.708;9.706;2022-08-27T05:27:19;20.00;99.90
4433;DHT22;2229;48.708;9.706;2022-08-27T05:29:46;20.00;99.90
4433;DHT22;2229;48.708;9.706;2022-08-27T05:32:13;20.00;99.90
4433;DHT22;2229;48.708;9.706;2022-08-27T05:34:42;20.00;99.90
4433;DHT22;2229;48.708;9.706;2022-08-27T05:37:09;20.00;99.90
4433;DHT22;2229;48.708;9.706;2022-08-27T05:39:36;19.90;99.90
4433;DHT22;2229;48.708;9.706;2022-08-27T05:42:04;19.90;99.90
4433;DHT22;2229;48.708;9.706;2022-08-27T05:44:32;19.90;99.90
4433;DHT22;2229;48.708;9.706;2022-08-27T05:46:59;19.90;99.90
4433;DHT22;2229;48.708;9.706;2022-08-27T05:49:29;19.90;99.90
4433;DHT22;2229;48.708;9.706;2022-08-27T05:51:58;19.90;99.90
4433;DHT22;2229;48.708;9.706;2022-08-27T05:54:25;19.90;99.90
4433;DHT22;2229;48.708;9.706;2022-08-27T05:56:52;20.00;99.90
4433;DHT22;2229;48.708;9.706;2022-08-27T05:59:20;20.00;99.90
4433;DHT22;2229;48.708;9.706;2022-08-27T06:02:05;19.90;99.90
4433;DHT22;2229;48.708;9.706;2022-08-27T06:04:32;19.90;99.90
4433;DHT22;2229;48.708;9.706;2022-08-27T06:07:00;19.90;99.90
4433;DHT22;2229;48.708;9.706;2022-08-27T06:09:28;20.00;99.90
4433;DHT22;2229;48.708;9.706;2022-08-27T06:11:57;19.90;99.90
4433;DHT22;2229;48.708;9.706;2022-08-27T06:14:25;20.00;99.90
4433;DHT22;2229;48.708;9.706;2022-08-27T06:16:52;20.00;99.90
4433;DHT22;2229;48.708;9.706;2022-08-27T06:19:20;20.00;99.90
4433;DHT22;2229;48.708;9.706;2022-08-27T06:21:47;20.00;99.90
4433;DHT22;2229;48.708;9.706;2022-08-27T06:24:16;20.00;99.90
4433;DHT22;2229;48.708;9.706;2022-08-27T06:26:44;19.90;99.90
4433;DHT22;2229;48.708;9.706;2022-08-27T06:29:12;20.00;99.90
4433;DHT22;2229;48.708;9.706;2022-08-27T06:31:40;20.00;99.90
4433;DHT22;2229;48.708;9.706;2022-08-27T06:34:09;20.00;99.90
4433;DHT22;2229;48.708;9.706;2022-08-27T06:36:38;20.00;99.90
4433;DHT22;2229;48.708;9.706;2022-08-27T06:39:06;20.00;99.90
4433;DHT22;2229;48.708;9.706;2022-08-27T06:41:35;20.00;99.90
4433;DHT22;2229;48.708;9.706;2022-08-27T06:44:10;20.10;99.90
4433;DHT22;2229;48.708;9.706;2022-08-27T06:46:38;20.10;99.90
4433;DHT22;2229;48.708;9.706;2022-08-27T06:49:06;20.10;99.90
4433;DHT22;2229;48.708;9.706;2022-08-27T06:51:53;20.10;99.90
4433;DHT22;2229;48.708;9.706;2022-08-27T06:54:21;20.10;99.90
4433;DHT22;2229;48.708;9.706;2022-08-27T06:56:49;20.20;99.90
4433;DHT22;2229;48.708;9.706;2022-08-27T06:59:17;20.20;99.90
4433;DHT22;2229;48.708;9.706;2022-08-27T07:01:47;20.20;99.90
4433;DHT22;2229;48.708;9.706;2022-08-27T07:04:20;20.20;99.90
4433;DHT22;2229;48.708;9.706;2022-08-27T07:06:48;20.20;99.90
4433;DHT22;2229;48.708;9.706;2022-08-27T07:09:16;20.20;99.90
4433;DHT22;2229;48.708;9.706;2022-08-27T07:11:45;20.20;99.90
4433;DHT22;2229;48.708;9.706;2022-08-27T07:14:14;20.20;99.90
4433;DHT22;2229;48.708;9.706;2022-08-27T07:16:43;20.20;99.90
4433;DHT22;2229;48.708;9.706;2022-08-27T07:19:10;20.20;99.90
4433;DHT22;2229;48.708;9.706;2022-08-27T07:21:38;20.20;99.90
4433;DHT22;2229;48.708;9.706;2022-08-27T07:24:06;20.30;99.90
4433;DHT22;2229;48.708;9.706;2022-08-27T07:26:38;20.30;99.90
4433;DHT22;2229;48.708;9.706;2022-08-27T07:29:08;20.30;99.90
4433;DHT22;2229;48.708;9.706;2022-08-27T07:31:37;20.30;99.90
4433;DHT22;2229;48.708;9.706;2022-08-27T07:34:05;20.30;99.90
4433;DHT22;2229;48.708;9.706;2022-08-27T07:36:32;20.40;99.90
4433;DHT22;2229;48.708;9.706;2022-08-27T07:39:00;20.40;99.90
4433;DHT22;2229;48.708;9.706;2022-08-27T07:41:29;20.40;99.90
4433;DHT22;2229;48.708;9.706;2022-08-27T07:43:57;20.40;99.90
4433;DHT22;2229;48.708;9.706;2022-08-27T07:46:43;20.40;99.90
4433;DHT22;2229;48.708;9.706;2022-08-27T07:49:10;20.40;99.90
4433;DHT22;2229;48.708;9.706;2022-08-27T07:51:37;20.40;99.90
4433;DHT22;2229;48.708;9.706;2022-08-27T07:54:04;20.50;99.90
4433;DHT22;2229;48.708;9.706;2022-08-27T07:56:32;20.50;99.90
4433;DHT22;2229;48.708;9.706;2022-08-27T07:58:59;20.50;99.90
4433;DHT22;2229;48.708;9.706;2022-08-27T08:01:28;20.60;99.90
4433;DHT22;2229;48.708;9.706;2022-08-27T08:03:56;20.60;99.90
4433;DHT22;2229;48.708;9.706;2022-08-27T08:06:24;20.60;99.90
4433;DHT22;2229;48.708;9.706;2022-08-27T08:08:51;20.60;99.90
4433;DHT22;2229;48.708;9.706;2022-08-27T08:11:19;20.60;99.90
4433;DHT22;2229;48.708;9.706;2022-08-27T08:13:47;20.60;99.90
4433;DHT22;2229;48.708;9.706;2022-08-27T08:16:14;20.60;99.90
4433;DHT22;2229;48.708;9.706;2022-08-27T08:18:41;20.60;99.90
4433;DHT22;2229;48.708;9.706;2022-08-27T08:21:12;20.60;99.90
4433;DHT22;2229;48.708;9.706;2022-08-27T08:23:40;20.60;99.90
4433;DHT22;2229;48.708;9.706;2022-08-27T08:26:08;20.70;99.90
4433;DHT22;2229;48.708;9.706;2022-08-27T08:28:37;20.70;99.90
4433;DHT22;2229;48.708;9.706;2022-08-27T08:31:05;20.70;99.90
4433;DHT22;2229;48.708;9.706;2022-08-27T08:33:33;20.80;99.90
4433;DHT22;2229;48.708;9.706;2022-08-27T08:36:09;20.80;99.90
4433;DHT22;2229;48.708;9.706;2022-08-27T08:38:38;20.80;99.90
4433;DHT22;2229;48.708;9.706;2022-08-27T08:41:18;20.80;99.90
4433;DHT22;2229;48.708;9.706;2022-08-27T08:43:53;20.80;99.90
4433;DHT22;2229;48.708;9.706;2022-08-27T08:46:28;20.90;99.90
4433;DHT22;2229;48.708;9.706;2022-08-27T08:49:00;20.80;99.90
4433;DHT22;2229;48.708;9.706;2022-08-27T08:51:31;20.80;99.90
4433;DHT22;2229;48.708;9.706;2022-08-27T08:54:04;20.90;99.90
4433;DHT22;2229;48.708;9.706;2022-08-27T08:56:40;20.80;99.90
4433;DHT22;2229;48.708;9.706;2022-08-27T08:59:14;20.90;99.90
4433;DHT22;2229;48.708;9.706;2022-08-27T09:01:43;20.80;99.90
4433;DHT22;2229;48.708;9.706;2022-08-27T09:04:11;20.80;99.90
4433;DHT22;2229;48.708;9.706;2022-08-27T09:06:42;20.80;99.90
4433;DHT22;2229;48.708;9.706;2022-08-27T09:09:20;20.80;99.90
4433;DHT22;2229;48.708;9.706;2022-08-27T09:11:53;20.90;99.90
4433;DHT22;2229;48.708;9.706;2022-08-27T09:14:32;20.90;99.90
4433;DHT22;2229;48.708;9.706;2022-08-27T09:17:00;20.90;99.90
4433;DHT22;2229;48.708;9.706;2022-08-27T09:19:28;20.90;99.90
4433;DHT22;2229;48.708;9.706;2022-08-27T09:22:00;21.00;99.90
4433;DHT22;2229;48.708;9.706;2022-08-27T09:24:36;21.10;99.90
4433;DHT22;2229;48.708;9.706;2022-08-27T09:27:08;21.40;99.90
4433;DHT22;2229;48.708;9.706;2022-08-27T09:29:47;21.90;99.90
4433;DHT22;2229;48.708;9.706;2022-08-27T09:32:21;22.40;99.90
4433;DHT22;2229;48.708;9.706;2022-08-27T09:34:48;22.80;99.90
4433;DHT22;2229;48.708;9.706;2022-08-27T09:37:18;23.30;99.90
4433;DHT22;2229;48.708;9.706;2022-08-27T09:39:51;23.60;99.90
4433;DHT22;2229;48.708;9.706;2022-08-27T09:42:26;23.90;99.90
4433;DHT22;2229;48.708;9.706;2022-08-27T09:45:08;24.00;99.90
4433;DHT22;2229;48.708;9.706;2022-08-27T09:47:44;24.10;99.90
4433;DHT22;2229;48.708;9.706;2022-08-27T09:50:11;24.20;99.90
4433;DHT22;2229;48.708;9.706;2022-08-27T09:52:49;24.20;99.90
4433;DHT22;2229;48.708;9.706;2022-08-27T09:55:37;24.20;99.90
4433;DHT22;2229;48.708;9.706;2022-08-27T09:58:06;24.10;99.90
4433;DHT22;2229;48.708;9.706;2022-08-27T10:00:36;24.00;99.90
4433;DHT22;2229;48.708;9.706;2022-08-27T10:03:05;23.90;99.90
4433;DHT22;2229;48.708;9.706;2022-08-27T10:05:37;23.70;99.90
4433;DHT22;2229;48.708;9.706;2022-08-27T10:08:14;23.60;99.90
4433;DHT22;2229;48.708;9.706;2022-08-27T10:10:56;23.50;99.90
4433;DHT22;2229;48.708;9.706;2022-08-27T10:13:29;23.40;99.90
4433;DHT22;2229;48.708;9.706;2022-08-27T10:16:08;23.30;99.90
4433;DHT22;2229;48.708;9.706;2022-08-27T10:18:46;23.20;99.90
4433;DHT22;2229;48.708;9.706;2022-08-27T10:21:22;23.20;99.90
4433;DHT22;2229;48.708;9.706;2022-08-27T10:23:58;23.20;99.90
4433;DHT22;2229;48.708;9.706;2022-08-27T10:26:36;23.20;99.90
4433;DHT22;2229;48.708;9.706;2022-08-27T10:29:20;23.20;99.90
4433;DHT22;2229;48.708;9.706;2022-08-27T10:31:56;23.20;99.90
4433;DHT22;2229;48.708;9.706;2022-08-27T10:34:33;23.20;99.90
4433;DHT22;2229;48.708;9.706;2022-08-27T10:37:14;23.00;99.90
4433;DHT22;2229;48.708;9.706;2022-08-27T10:40:02;23.00;99.90
4433;DHT22;2229;48.708;9.706;2022-08-27T10:42:36;22.90;99.90
4433;DHT22;2229;48.708;9.706;2022-08-27T10:45:15;22.80;99.90
4433;DHT22;2229;48.708;9.706;2022-08-27T10:47:54;22.70;99.90
4433;DHT22;2229;48.708;9.706;2022-08-27T10:50:29;22.50;99.90
4433;DHT22;2229;48.708;9.706;2022-08-27T10:53:04;22.30;99.90
4433;DHT22;2229;48.708;9.706;2022-08-27T10:55:38;21.90;99.90
4433;DHT22;2229;48.708;9.706;2022-08-27T10:58:21;21.60;99.90
4433;DHT22;2229;48.708;9.706;2022-08-27T11:00:58;21.30;99.90
4433;DHT22;2229;48.708;9.706;2022-08-27T11:03:38;21.00;99.90
4433;DHT22;2229;48.708;9.706;2022-08-27T11:06:13;20.80;99.90
4433;DHT22;2229;48.708;9.706;2022-08-27T11:08:44;20.60;99.90
4433;DHT22;2229;48.708;9.706;2022-08-27T11:11:23;20.40;99.90
4433;DHT22;2229;48.708;9.706;2022-08-27T11:13:53;20.20;99.90
4433;DHT22;2229;48.708;9.706;2022-08-27T11:16:26;20.10;99.90
4433;DHT22;2229;48.708;9.706;2022-08-27T11:18:58;20.00;99.90
4433;DHT22;2229;48.708;9.706;2022-08-27T11:21:31;19.90;99.90
4433;DHT22;2229;48.708;9.706;2022-08-27T11:24:12;19.80;99.90
4433;DHT22;2229;48.708;9.706;2022-08-27T11:26:41;19.80;99.90
4433;DHT22;2229;48.708;9.706;2022-08-27T11:29:18;19.70;99.90
4433;DHT22;2229;48.708;9.706;2022-08-27T11:31:52;19.70;99.90
4433;DHT22;2229;48.708;9.706;2022-08-27T11:34:26;19.80;99.90
4433;DHT22;2229;48.708;9.706;2022-08-27T11:37:18;19.70;99.90
4433;DHT22;2229;48.708;9.706;2022-08-27T11:40:05;19.70;99.90
4433;DHT22;2229;48.708;9.706;2022-08-27T11:42:37;19.60;99.90
4433;DHT22;2229;48.708;9.706;2022-08-27T11:45:15;19.60;99.90
4433;DHT22;2229;48.708;9.706;2022-08-27T11:47:50;19.60;99.90
4433;DHT22;2229;48.708;9.706;2022-08-27T11:50:20;19.60;99.90
4433;DHT22;2229;48.708;9.706;2022-08-27T11:52:57;19.60;99.90
4433;DHT22;2229;48.708;9.706;2022-08-27T11:55:28;19.60;99.90
4433;DHT22;2229;48.708;9.706;2022-08-27T12:00:31;19.60;99.90
4433;DHT22;2229;48.708;9.706;2022-08-27T12:03:02;19.60;99.90
4433;DHT22;2229;48.708;9.706;2022-08-27T12:05:37;19.60;99.90
4433;DHT22;2229;48.708;9.706;2022-08-27T12:08:31;19.60;99.90
4433;DHT22;2229;48.708;9.706;2022-08-27T12:11:11;19.60;99.90
4433;DHT22;2229;48.708;9.706;2022-08-27T12:13:47;19.60;99.90
4433;DHT22;2229;48.708;9.706;2022-08-27T12:16:27;19.60;99.90
4433;DHT22;2229;48.708;9.706;2022-08-27T12:19:02;19.60;99.90
4433;DHT22;2229;48.708;9.706;2022-08-27T12:21:40;19.60;99.90
4433;DHT22;2229;48.708;9.706;2022-08-27T12:24:19;19.70;99.90
4433;DHT22;2229;48.708;9.706;2022-08-27T12:26:55;19.70;99.90
4433;DHT22;2229;48.708;9.706;2022-08-27T12:29:27;19.80;99.90
4433;DHT22;2229;48.708;9.706;2022-08-27T12:32:04;19.80;99.90
4433;DHT22;2229;48.708;9.706;2022-08-27T12:34:43;19.80;99.90
4433;DHT22;2229;48.708;9.706;2022-08-27T12:37:15;19.80;99.90
4433;DHT22;2229;48.708;9.706;2022-08-27T12:39:50;19.90;99.90
4433;DHT22;2229;48.708;9.706;2022-08-27T12:42:19;19.90;99.90
4433;DHT22;2229;48.708;9.706;2022-08-27T12:44:53;19.90;99.90
4433;DHT22;2229;48.708;9.706;2022-08-27T12:47:23;19.90;99.90
4433;DHT22;2229;48.708;9.706;2022-08-27T12:49:52;20.00;99.90
4433;DHT22;2229;48.708;9.706;2022-08-27T12:52:48;20.00;99.90
4433;DHT22;2229;48.708;9.706;2022-08-27T12:55:25;20.10;99.90
4433;DHT22;2229;48.708;9.706;2022-08-27T12:58:02;20.10;99.90
4433;DHT22;2229;48.708;9.706;2022-08-27T13:00:45;20.10;99.90
4433;DHT22;2229;48.708;9.706;2022-08-27T13:03:25;20.20;99.90
4433;DHT22;2229;48.708;9.706;2022-08-27T13:05:55;20.20;99.90
4433;DHT22;2229;48.708;9.706;2022-08-27T13:08:28;20.20;99.90
4433;DHT22;2229;48.708;9.706;2022-08-27T13:10:56;20.30;99.90
4433;DHT22;2229;48.708;9.706;2022-08-27T13:13:32;20.30;99.90
4433;DHT22;2229;48.708;9.706;2022-08-27T13:16:02;20.30;99.90
4433;DHT22;2229;48.708;9.706;2022-08-27T13:18:31;20.30;99.90
4433;DHT22;2229;48.708;9.706;2022-08-27T13:21:01;20.30;99.90
4433;DHT22;2229;48.708;9.706;2022-08-27T13:23:29;20.30;99.90
4433;DHT22;2229;48.708;9.706;2022-08-27T13:26:03;20.30;99.90
4433;DHT22;2229;48.708;9.706;2022-08-27T13:28:32;20.30;99.90
4433;DHT22;2229;48.708;9.706;2022-08-27T13:31:00;20.30;99.90
4433;DHT22;2229;48.708;9.706;2022-08-27T13:33:32;20.30;99.90
4433;DHT22;2229;48.708;9.706;2022-08-27T13:36:01;20.30;99.90
4433;DHT22;2229;48.708;9.706;2022-08-27T13:38:30;20.30;99.90
4433;DHT22;2229;48.708;9.706;2022-08-27T13:41:00;20.30;99.90
4433;DHT22;2229;48.708;9.706;2022-08-27T13:43:36;20.30;99.90
4433;DHT22;2229;48.708;9.706;2022-08-27T13:46:07;20.30;99.90
4433;DHT22;2229;48.708;9.706;2022-08-27T13:48:39;20.40;99.90
4433;DHT22;2229;48.708;9.706;2022-08-27T13:51:07;20.40;99.90
4433;DHT22;2229;48.708;9.706;2022-08-27T13:53:35;20.50;99.90
4433;DHT22;2229;48.708;9.706;2022-08-27T13:56:27;20.50;99.90
4433;DHT22;2229;48.708;9.706;2022-08-27T13:58:54;20.60;99.90
4433;DHT22;2229;48.708;9.706;2022-08-27T14:01:32;20.60;99.90
4433;DHT22;2229;48.708;9.706;2022-08-27T14:04:03;20.60;99.90
4433;DHT22;2229;48.708;9.706;2022-08-27T14:06:33;20.60;99.90
4433;DHT22;2229;48.708;9.706;2022-08-27T14:09:14;20.60;99.90
4433;DHT22;2229;48.708;9.706;2022-08-27T14:11:42;20.60;99.90
4433;DHT22;2229;48.708;9.706;2022-08-27T14:14:11;20.60;99.90
4433;DHT22;2229;48.708;9.706;2022-08-27T14:16:38;20.70;99.90
4433;DHT22;2229;48.708;9.706;2022-08-27T14:19:09;20.70;99.90
4433;DHT22;2229;48.708;9.706;2022-08-27T14:21:39;20.80;99.90
4433;DHT22;2229;48.708;9.706;2022-08-27T14:24:06;20.80;99.90
4433;DHT22;2229;48.708;9.706;2022-08-27T14:26:34;20.90;99.90
4433;DHT22;2229;48.708;9.706;2022-08-27T14:29:02;20.90;99.90
4433;DHT22;2229;48.708;9.706;2022-08-27T14:31:29;20.90;99.90
4433;DHT22;2229;48.708;9.706;2022-08-27T14:33:56;21.00;99.90
4433;DHT22;2229;48.708;9.706;2022-08-27T14:36:27;21.00;99.90
4433;DHT22;2229;48.708;9.706;2022-08-27T14:38:55;21.00;99.90
4433;DHT22;2229;48.708;9.706;2022-08-27T14:41:22;21.10;99.90
4433;DHT22;2229;48.708;9.706;2022-08-27T14:43:50;21.10;99.90
4433;DHT22;2229;48.708;9.706;2022-08-27T14:46:25;21.20;99.90
4433;DHT22;2229;48.708;9.706;2022-08-27T14:48:53;21.20;99.90
4433;DHT22;2229;48.708;9.706;2022-08-27T14:51:23;21.20;99.90
4433;DHT22;2229;48.708;9.706;2022-08-27T14:53:53;21.20;99.90
4433;DHT22;2229;48.708;9.706;2022-08-27T14:56:21;21.30;99.90
4433;DHT22;2229;48.708;9.706;2022-08-27T14:58:49;21.30;99.90
4433;DHT22;2229;48.708;9.706;2022-08-27T15:01:21;21.30;99.90
4433;DHT22;2229;48.708;9.706;2022-08-27T15:03:52;21.30;99.90
4433;DHT22;2229;48.708;9.706;2022-08-27T15:06:21;21.30;99.90
4433;DHT22;2229;48.708;9.706;2022-08-27T15:08:49;21.20;99.90
4433;DHT22;2229;48.708;9.706;2022-08-27T15:11:19;21.20;99.90
4433;DHT22;2229;48.708;9.706;2022-08-27T15:13:48;21.30;99.90
4433;DHT22;2229;48.708;9.706;2022-08-27T15:16:28;21.30;99.90
4433;DHT22;2229;48.708;9.706;2022-08-27T15:18:55;21.30;99.90
4433;DHT22;2229;48.708;9.706;2022-08-27T15:21:22;21.30;99.90
4433;DHT22;2229;48.708;9.706;2022-08-27T15:23:55;21.40;99.90
4433;DHT22;2229;48.708;9.706;2022-08-27T15:26:24;21.40;99.90
4433;DHT22;2229;48.708;9.706;2022-08-27T15:28:51;21.40;99.90
4433;DHT22;2229;48.708;9.706;2022-08-27T15:31:19;21.40;99.90
4433;DHT22;2229;48.708;9.706;2022-08-27T15:33:46;21.40;99.90
4433;DHT22;2229;48.708;9.706;2022-08-27T15:36:13;21.40;99.90
4433;DHT22;2229;48.708;9.706;2022-08-27T15:38:41;21.50;99.90
4433;DHT22;2229;48.708;9.706;2022-08-27T15:41:08;21.50;99.90
4433;DHT22;2229;48.708;9.706;2022-08-27T15:43:38;21.50;99.90
4433;DHT22;2229;48.708;9.706;2022-08-27T15:46:05;21.40;99.90
4433;DHT22;2229;48.708;9.706;2022-08-27T15:48:33;21.50;99.90
4433;DHT22;2229;48.708;9.706;2022-08-27T15:51:05;21.40;99.90
4433;DHT22;2229;48.708;9.706;2022-08-27T15:53:32;21.50;99.90
4433;DHT22;2229;48.708;9.706;2022-08-27T15:56:00;21.40;99.90
4433;DHT22;2229;48.708;9.706;2022-08-27T15:58:28;21.40;99.90
4433;DHT22;2229;48.708;9.706;2022-08-27T16:01:03;21.40;99.90
4433;DHT22;2229;48.708;9.706;2022-08-27T16:03:32;21.40;99.90
4433;DHT22;2229;48.708;9.706;2022-08-27T16:06:00;21.30;99.90
4433;DHT22;2229;48.708;9.706;2022-08-27T16:08:27;21.30;99.90
4433;DHT22;2229;48.708;9.706;2022-08-27T16:10:55;21.30;99.90
4433;DHT22;2229;48.708;9.706;2022-08-27T16:13:23;21.30;99.90
4433;DHT22;2229;48.708;9.706;2022-08-27T16:15:52;21.30;99.90
4433;DHT22;2229;48.708;9.706;2022-08-27T16:18:32;21.30;99.90
4433;DHT22;2229;48.708;9.706;2022-08-27T16:21:01;21.30;99.90
4433;DHT22;2229;48.708;9.706;2022-08-27T16:23:30;21.40;99.90
4433;DHT22;2229;48.708;9.706;2022-08-27T16:25:58;21.40;99.90
4433;DHT22;2229;48.708;9.706;2022-08-27T16:28:26;21.50;99.90